createdAt,value
2023-05-13T00:00:55.131Z,99600.45
2023-05-13T00:03:23.726Z,99600.92
2023-05-13T00:05:52.200Z,99600.53
2023-05-13T00:08:20.605Z,99603.62
2023-05-13T00:10:48.954Z,99602.99
2023-05-13T00:13:17.250Z,99605.02
2023-05-13T00:15:45.444Z,99602.63
2023-05-13T00:18:13.735Z,99606.23
2023-05-13T00:20:42.266Z,99607.67
2023-05-13T00:23:11.511Z,99606.34
2023-05-13T00:25:41.462Z,99611.14
2023-05-13T00:28:09.670Z,99610.31
2023-05-13T00:30:38.003Z,99608.29
2023-05-13T00:33:07.587Z,99608.54
2023-05-13T00:35:36.007Z,99611.05
2023-05-13T00:38:04.254Z,99617.23
2023-05-13T00:40:37.124Z,99622.45
2023-05-13T00:43:06.573Z,99627.83
2023-05-13T00:45:37.768Z,99630.73
2023-05-13T00:48:07.453Z,99626.77
2023-05-13T00:50:35.968Z,99630.39
2023-05-13T00:53:04.987Z,99627.92
2023-05-13T00:55:33.492Z,99629.50
2023-05-13T00:58:01.934Z,99631.41
2023-05-13T01:00:35.538Z,99632.34
2023-05-13T01:03:29.706Z,99635.09
2023-05-13T01:06:09.107Z,99638.48
2023-05-13T01:08:43.424Z,99640.61
2023-05-13T01:11:20.534Z,99641.49
2023-05-13T01:13:54.275Z,99643.98
2023-05-13T01:16:29.762Z,99643.05
2023-05-13T01:19:02.704Z,99643.64
2023-05-13T01:21:36.890Z,99644.16
2023-05-13T01:24:05.724Z,99644.56
2023-05-13T01:26:34.066Z,99648.54
2023-05-13T01:29:02.298Z,99643.75
2023-05-13T01:31:30.678Z,99648.77
2023-05-13T01:33:59.212Z,99649.64
2023-05-13T01:36:27.725Z,99652.02
2023-05-13T01:38:56.665Z,99654.30
2023-05-13T01:41:24.951Z,99653.70
2023-05-13T01:43:53.464Z,99655.50
2023-05-13T01:46:22.815Z,99654.52
2023-05-13T01:48:51.205Z,99658.85
2023-05-13T01:51:19.589Z,99659.56
2023-05-13T01:53:48.098Z,99659.93
2023-05-13T01:56:16.508Z,99665.13
2023-05-13T01:58:44.823Z,99661.98
2023-05-13T02:01:13.249Z,99658.69
2023-05-13T02:03:41.758Z,99658.58
2023-05-13T02:06:10.195Z,99656.34
2023-05-13T02:08:38.602Z,99660.42
2023-05-13T02:11:07.008Z,99653.47
2023-05-13T02:13:35.263Z,99652.81
2023-05-13T02:16:03.852Z,99654.41
2023-05-13T02:18:32.340Z,99655.85
2023-05-13T02:21:00.979Z,99657.04
2023-05-13T02:23:29.567Z,99656.35
2023-05-13T02:25:57.850Z,99658.14
2023-05-13T02:28:29.189Z,99659.36
2023-05-13T02:30:57.533Z,99654.76
2023-05-13T02:33:26.016Z,99658.43
2023-05-13T02:35:54.398Z,99661.92
2023-05-13T02:38:22.899Z,99661.71
2023-05-13T02:40:51.298Z,99668.39
2023-05-13T02:43:19.682Z,99671.87
2023-05-13T02:45:52.298Z,99670.06
2023-05-13T02:48:20.670Z,99669.88
2023-05-13T02:50:48.991Z,99675.52
2023-05-13T02:53:17.453Z,99676.90
2023-05-13T02:55:50.835Z,99675.30
2023-05-13T02:58:19.229Z,99674.05
2023-05-13T03:00:48.372Z,99673.84
2023-05-13T03:03:16.798Z,99674.79
2023-05-13T03:05:45.281Z,99675.20
2023-05-13T03:08:13.619Z,99672.12
2023-05-13T03:10:41.988Z,99675.67
2023-05-13T03:13:10.558Z,99680.52
2023-05-13T03:15:38.991Z,99684.91
2023-05-13T03:18:07.369Z,99686.35
2023-05-13T03:20:36.241Z,99687.39
2023-05-13T03:23:05.019Z,99686.86
2023-05-13T03:25:33.366Z,99692.88
2023-05-13T03:28:03.393Z,99695.86
2023-05-13T03:30:34.002Z,99694.30
2023-05-13T03:33:07.838Z,99697.13
2023-05-13T03:35:36.377Z,99697.34
2023-05-13T03:38:04.692Z,99700.29
2023-05-13T03:40:33.394Z,99703.79
2023-05-13T03:43:01.747Z,99704.42
2023-05-13T03:45:30.017Z,99712.20
2023-05-13T03:48:00.582Z,99710.84
2023-05-13T03:50:29.052Z,99709.27
2023-05-13T03:52:57.308Z,99711.83
2023-05-13T03:55:25.678Z,99710.13
2023-05-13T03:57:53.937Z,99715.28
2023-05-13T04:00:22.625Z,99715.63
2023-05-13T04:02:51.419Z,99718.77
2023-05-13T04:05:19.997Z,99718.65
2023-05-13T04:07:48.337Z,99720.98
2023-05-13T04:10:16.588Z,99725.10
2023-05-13T04:12:44.873Z,99726.35
2023-05-13T04:15:13.157Z,99724.80
2023-05-13T04:17:42.000Z,99722.55
2023-05-13T04:20:10.945Z,99722.29
2023-05-13T04:22:39.338Z,99722.33
2023-05-13T04:25:08.096Z,99722.05
2023-05-13T04:27:36.451Z,99720.08
2023-05-13T04:30:16.062Z,99722.43
2023-05-13T04:32:45.428Z,99722.34
2023-05-13T04:35:14.170Z,99722.06
2023-05-13T04:37:45.055Z,99724.57
2023-05-13T04:40:16.306Z,99726.27
2023-05-13T04:42:44.597Z,99721.13
2023-05-13T04:45:13.057Z,99721.95
2023-05-13T04:47:41.393Z,99723.36
2023-05-13T04:50:10.204Z,99717.94
2023-05-13T04:52:38.936Z,99716.40
2023-05-13T04:55:07.705Z,99715.61
2023-05-13T04:57:35.998Z,99718.95
2023-05-13T05:00:05.370Z,99719.80
2023-05-13T05:02:35.866Z,99714.28
2023-05-13T05:05:04.315Z,99717.09
2023-05-13T05:07:32.595Z,99719.04
2023-05-13T05:10:00.965Z,99716.21
2023-05-13T05:12:32.492Z,99721.86
2023-05-13T05:15:00.864Z,99721.88
2023-05-13T05:17:32.846Z,99720.88
2023-05-13T05:20:03.725Z,99718.98
2023-05-13T05:22:32.047Z,99723.20
2023-05-13T05:25:00.471Z,99723.71
2023-05-13T05:27:28.821Z,99723.77
2023-05-13T05:29:57.062Z,99724.73
2023-05-13T05:32:25.673Z,99726.63
2023-05-13T05:34:54.142Z,99726.19
2023-05-13T05:37:22.548Z,99726.99
2023-05-13T05:39:50.903Z,99725.63
2023-05-13T05:42:19.220Z,99725.61
2023-05-13T05:44:47.809Z,99726.73
2023-05-13T05:47:16.202Z,99728.42
2023-05-13T05:49:44.588Z,99726.18
2023-05-13T05:52:13.400Z,99728.77
2023-05-13T05:54:41.833Z,99730.80
2023-05-13T05:57:10.296Z,99729.92
2023-05-13T05:59:38.644Z,99733.73
2023-05-13T06:02:07.612Z,99732.15
2023-05-13T06:04:36.978Z,99732.41
2023-05-13T06:07:05.546Z,99734.61
2023-05-13T06:09:34.610Z,99735.69
2023-05-13T06:12:03.586Z,99739.71
2023-05-13T06:14:32.314Z,99739.18
2023-05-13T06:17:00.672Z,99740.30
2023-05-13T06:19:28.952Z,99742.26
2023-05-13T06:21:57.149Z,99746.91
2023-05-13T06:24:25.714Z,99745.67
2023-05-13T06:26:53.996Z,99746.77
2023-05-13T06:29:22.321Z,99750.05
2023-05-13T06:31:50.636Z,99752.05
2023-05-13T06:34:19.206Z,99749.59
2023-05-13T06:36:47.574Z,99746.58
2023-05-13T06:39:15.891Z,99748.45
2023-05-13T06:41:45.656Z,99748.51
2023-05-13T06:44:16.910Z,99748.23
2023-05-13T06:46:48.255Z,99753.43
2023-05-13T06:49:16.551Z,99753.63
2023-05-13T06:51:44.741Z,99755.92
2023-05-13T06:54:13.076Z,99758.35
2023-05-13T06:56:41.428Z,99756.95
2023-05-13T06:59:09.692Z,99750.98
2023-05-13T07:01:38.169Z,99751.12
2023-05-13T07:04:06.820Z,99754.86
2023-05-13T07:06:36.118Z,99756.55
2023-05-13T07:09:08.134Z,99757.85
2023-05-13T07:11:37.575Z,99757.61
2023-05-13T07:14:06.077Z,99756.80
2023-05-13T07:16:34.714Z,99755.98
2023-05-13T07:19:03.063Z,99752.53
2023-05-13T07:21:31.624Z,99750.63
2023-05-13T07:24:02.350Z,99752.05
2023-05-13T07:26:31.122Z,99748.73
2023-05-13T07:28:59.725Z,99750.14
2023-05-13T07:31:28.764Z,99747.89
2023-05-13T07:33:57.731Z,99745.98
2023-05-13T07:36:26.331Z,99747.11
2023-05-13T07:38:54.757Z,99750.01
2023-05-13T07:41:23.033Z,99745.19
2023-05-13T07:43:51.512Z,99749.36
2023-05-13T07:46:19.883Z,99750.36
2023-05-13T07:48:48.492Z,99753.39
2023-05-13T07:51:18.496Z,99753.13
2023-05-13T07:53:47.201Z,99753.68
2023-05-13T07:56:15.575Z,99748.97
2023-05-13T07:58:43.884Z,99748.30
2023-05-13T08:01:12.126Z,99747.61
2023-05-13T08:03:40.555Z,99750.29
2023-05-13T08:06:09.122Z,99752.59
2023-05-13T08:08:37.410Z,99751.77
2023-05-13T08:11:05.988Z,99751.77
2023-05-13T08:13:34.264Z,99748.02
2023-05-13T08:16:03.636Z,99747.53
2023-05-13T08:18:31.905Z,99744.27
2023-05-13T08:21:00.272Z,99740.64
2023-05-13T08:23:40.877Z,99738.60
2023-05-13T08:26:12.151Z,99738.38
2023-05-13T08:28:43.879Z,99734.89
2023-05-13T08:31:13.479Z,99733.68
2023-05-13T08:33:42.786Z,99733.32
2023-05-13T08:36:11.438Z,99732.78
2023-05-13T08:38:39.878Z,99734.32
2023-05-13T08:41:08.745Z,99731.52
2023-05-13T08:43:39.362Z,99730.89
2023-05-13T08:46:11.842Z,99728.31
2023-05-13T08:48:41.383Z,99720.27
2023-05-13T08:51:09.895Z,99721.06
2023-05-13T08:53:40.630Z,99716.11
2023-05-13T08:56:09.868Z,99714.61
2023-05-13T08:58:38.161Z,99702.00
2023-05-13T09:01:07.870Z,99701.86
2023-05-13T09:03:43.240Z,99705.95
2023-05-13T09:06:11.489Z,99701.52
2023-05-13T09:08:39.991Z,99698.85
2023-05-13T09:11:08.477Z,99698.13
2023-05-13T09:13:37.561Z,99694.45
2023-05-13T09:16:07.226Z,99690.86
2023-05-13T09:18:35.844Z,99684.30
2023-05-13T09:21:24.965Z,99680.41
2023-05-13T09:24:13.242Z,99678.12
2023-05-13T09:26:42.266Z,99680.73
2023-05-13T09:29:25.197Z,99681.30
2023-05-13T09:31:54.845Z,99674.21
2023-05-13T09:34:34.361Z,99673.51
2023-05-13T09:37:08.089Z,99671.03
2023-05-13T09:39:41.790Z,99670.34
2023-05-13T09:42:17.784Z,99665.84
2023-05-13T09:44:46.813Z,99667.18
2023-05-13T09:47:16.166Z,99657.08
2023-05-13T09:49:45.990Z,99655.59
2023-05-13T09:52:17.182Z,99654.17
2023-05-13T09:54:45.739Z,99650.19
2023-05-13T09:57:15.065Z,99645.30
2023-05-13T09:59:43.295Z,99640.25
2023-05-13T10:02:15.456Z,99627.95
2023-05-13T10:04:43.793Z,99629.69
2023-05-13T10:07:13.245Z,99626.54
2023-05-13T10:09:44.675Z,99620.11
2023-05-13T10:12:15.075Z,99615.89
2023-05-13T10:14:44.018Z,99617.77
2023-05-13T10:17:13.128Z,99621.41
2023-05-13T10:19:42.470Z,99619.41
2023-05-13T10:22:12.135Z,99614.02
2023-05-13T10:24:42.752Z,99610.14
2023-05-13T10:27:11.885Z,99603.19
2023-05-13T10:29:43.343Z,99599.31
2023-05-13T10:32:12.976Z,99602.32
2023-05-13T10:34:43.856Z,99605.34
2023-05-13T10:37:43.494Z,99614.33
2023-05-13T10:40:49.492Z,99615.65
2023-05-13T10:43:22.493Z,99618.05
2023-05-13T10:45:56.215Z,99620.05
2023-05-13T10:48:24.871Z,99621.08
2023-05-13T10:51:01.273Z,99623.14
2023-05-13T10:53:36.258Z,99622.52
2023-05-13T10:56:08.140Z,99622.67
2023-05-13T10:58:38.394Z,99622.20
2023-05-13T11:01:14.591Z,99622.58
2023-05-13T11:03:55.655Z,99625.84
2023-05-13T11:06:34.513Z,99630.59
2023-05-13T11:09:06.647Z,99631.13
2023-05-13T11:11:36.859Z,99636.22
2023-05-13T11:14:14.417Z,99642.11
2023-05-13T11:16:53.186Z,99641.73
2023-05-13T11:19:27.282Z,99646.12
2023-05-13T11:22:08.458Z,99648.86
2023-05-13T11:24:37.115Z,99644.83
2023-05-13T11:27:19.675Z,99649.93
2023-05-13T11:29:52.696Z,99649.89
2023-05-13T11:32:53.733Z,99651.64
2023-05-13T11:35:22.916Z,99650.36
2023-05-13T11:37:51.563Z,99653.63
2023-05-13T11:40:28.468Z,99658.31
2023-05-13T11:42:57.358Z,99657.48
2023-05-13T11:45:27.012Z,99659.65
2023-05-13T11:47:56.485Z,99655.98
2023-05-13T11:50:30.206Z,99656.39
2023-05-13T11:53:00.564Z,99655.34
2023-05-13T11:55:30.068Z,99659.77
2023-05-13T11:57:59.908Z,99659.27
2023-05-13T12:00:30.069Z,99663.25
2023-05-13T12:02:59.691Z,99666.45
2023-05-13T12:05:28.228Z,99671.93
2023-05-13T12:07:58.261Z,99672.97
2023-05-13T12:10:27.198Z,99679.48
2023-05-13T12:12:56.034Z,99677.40
2023-05-13T12:15:24.703Z,99676.80
2023-05-13T12:17:54.924Z,99678.40
2023-05-13T12:20:24.678Z,99676.78
2023-05-13T12:22:57.173Z,99676.17
2023-05-13T12:25:35.843Z,99671.02
2023-05-13T12:28:26.914Z,99674.30
2023-05-13T12:30:58.314Z,99676.36
2023-05-13T12:33:40.782Z,99681.58
2023-05-13T12:36:21.759Z,99680.37
2023-05-13T12:39:01.564Z,99679.16
2023-05-13T12:41:50.487Z,99685.37
2023-05-13T12:44:18.841Z,99683.89
2023-05-13T12:46:54.724Z,99682.81
2023-05-13T12:49:23.567Z,99689.55
2023-05-13T12:51:51.899Z,99690.67
2023-05-13T12:54:20.376Z,99691.04
2023-05-13T12:56:48.851Z,99689.48
2023-05-13T12:59:19.133Z,99690.02
2023-05-13T13:01:49.978Z,99686.90
2023-05-13T13:04:19.203Z,99686.23
2023-05-13T13:06:47.611Z,99688.08
2023-05-13T13:09:15.896Z,99690.48
2023-05-13T13:11:44.213Z,99693.44
2023-05-13T13:14:12.519Z,99695.98
2023-05-13T13:16:40.958Z,99697.50
2023-05-13T13:19:09.957Z,99693.68
2023-05-13T13:21:38.227Z,99693.31
2023-05-13T13:24:06.588Z,99691.91
2023-05-13T13:26:35.005Z,99690.96
2023-05-13T13:29:03.230Z,99687.04
2023-05-13T13:31:31.529Z,99687.64
2023-05-13T13:34:04.438Z,99685.92
2023-05-13T13:36:32.982Z,99684.68
2023-05-13T13:39:01.370Z,99687.42
2023-05-13T13:41:29.715Z,99687.13
2023-05-13T13:43:58.074Z,99688.42
2023-05-13T13:46:26.655Z,99682.93
2023-05-13T13:48:54.948Z,99679.67
2023-05-13T13:51:23.178Z,99670.90
2023-05-13T13:53:51.527Z,99673.64
2023-05-13T13:56:21.015Z,99670.02
2023-05-13T13:58:49.238Z,99671.84
2023-05-13T14:01:18.770Z,99669.52
2023-05-13T14:03:50.447Z,99668.48
2023-05-13T14:06:19.055Z,99665.92
2023-05-13T14:08:47.320Z,99665.05
2023-05-13T14:11:16.746Z,99665.27
2023-05-13T14:13:46.120Z,99664.17
2023-05-13T14:16:14.399Z,99666.04
2023-05-13T14:18:44.525Z,99673.14
2023-05-13T14:21:12.930Z,99677.21
2023-05-13T14:23:42.173Z,99675.04
2023-05-13T14:26:15.638Z,99684.56
2023-05-13T14:28:44.163Z,99681.23
2023-05-13T14:31:12.656Z,99680.07
2023-05-13T14:33:40.962Z,99684.89
2023-05-13T14:36:11.297Z,99683.96
2023-05-13T14:38:39.993Z,99688.46
2023-05-13T14:41:08.416Z,99686.39
2023-05-13T14:43:36.824Z,99686.50
2023-05-13T14:46:05.155Z,99693.13
2023-05-13T14:48:33.522Z,99697.80
2023-05-13T14:51:01.862Z,99698.20
2023-05-13T14:53:30.351Z,99696.77
2023-05-13T14:55:58.793Z,99689.39
2023-05-13T14:58:27.207Z,99689.80
2023-05-13T15:00:56.172Z,99685.98
2023-05-13T15:03:24.533Z,99684.55
2023-05-13T15:05:54.471Z,99682.86
2023-05-13T15:08:22.907Z,99684.17
2023-05-13T15:10:51.313Z,99684.33
2023-05-13T15:13:19.887Z,99685.77
2023-05-13T15:15:48.246Z,99686.50
2023-05-13T15:18:16.545Z,99686.69
2023-05-13T15:20:45.559Z,99688.23
2023-05-13T15:23:13.889Z,99685.89
2023-05-13T15:25:42.530Z,99684.36
2023-05-13T15:28:10.903Z,99685.95
2023-05-13T15:30:39.200Z,99687.44
2023-05-13T15:33:07.591Z,99687.38
2023-05-13T15:35:36.136Z,99685.59
2023-05-13T15:38:04.527Z,99684.87
2023-05-13T15:40:33.797Z,99682.57
2023-05-13T15:43:02.160Z,99682.16
2023-05-13T15:45:30.849Z,99681.75
2023-05-13T15:47:59.128Z,99680.80
2023-05-13T15:50:27.524Z,99673.67
2023-05-13T15:52:55.809Z,99677.48
2023-05-13T15:55:24.093Z,99676.80
2023-05-13T15:57:52.336Z,99673.84
2023-05-13T16:00:20.766Z,99671.25
2023-05-13T16:02:49.304Z,99670.04
2023-05-13T16:05:19.514Z,99674.48
2023-05-13T16:07:47.929Z,99674.70
2023-05-13T16:10:16.134Z,99677.28
2023-05-13T16:12:44.637Z,99676.50
2023-05-13T16:15:12.857Z,99677.68
2023-05-13T16:17:41.291Z,99677.99
2023-05-13T16:20:11.687Z,99673.34
2023-05-13T16:22:40.446Z,99669.71
2023-05-13T16:25:09.682Z,99672.07
2023-05-13T16:27:39.221Z,99673.05
2023-05-13T16:30:08.019Z,99673.72
2023-05-13T16:32:36.801Z,99670.63
2023-05-13T16:35:05.881Z,99671.34
2023-05-13T16:37:35.537Z,99667.22
2023-05-13T16:40:05.001Z,99666.84
2023-05-13T16:42:33.312Z,99666.45
2023-05-13T16:45:01.757Z,99672.02
2023-05-13T16:47:30.155Z,99673.54
2023-05-13T16:49:58.626Z,99673.06
2023-05-13T16:52:27.229Z,99673.30
2023-05-13T16:54:57.803Z,99670.69
2023-05-13T16:57:27.544Z,99670.94
2023-05-13T16:59:58.788Z,99666.84
2023-05-13T17:02:27.440Z,99667.34
2023-05-13T17:04:55.995Z,99664.67
2023-05-13T17:07:24.374Z,99666.12
2023-05-13T17:09:52.756Z,99659.70
2023-05-13T17:12:21.041Z,99657.86
2023-05-13T17:14:49.339Z,99662.63
2023-05-13T17:17:17.706Z,99660.47
2023-05-13T17:19:46.088Z,99660.92
2023-05-13T17:22:14.246Z,99654.56
2023-05-13T17:24:42.422Z,99657.60
2023-05-13T17:27:10.943Z,99655.86
2023-05-13T17:29:39.239Z,99656.88
2023-05-13T17:32:07.858Z,99655.92
2023-05-13T17:34:36.366Z,99651.41
2023-05-13T17:37:04.925Z,99652.23
2023-05-13T17:39:33.230Z,99651.52
2023-05-13T17:42:01.641Z,99651.71
2023-05-13T17:44:30.062Z,99647.05
2023-05-13T17:46:58.573Z,99647.13
2023-05-13T17:49:26.927Z,99647.15
2023-05-13T17:51:55.442Z,99645.27
2023-05-13T17:54:23.879Z,99649.75
2023-05-13T17:56:52.197Z,99652.48
2023-05-13T17:59:20.488Z,99653.98
2023-05-13T18:01:48.980Z,99652.00
2023-05-13T18:04:17.503Z,99655.21
2023-05-13T18:06:45.851Z,99662.86
2023-05-13T18:09:14.124Z,99660.95
2023-05-13T18:11:42.462Z,99664.00
2023-05-13T18:14:10.851Z,99666.00
2023-05-13T18:16:39.047Z,99669.21
2023-05-13T18:19:07.438Z,99672.02
2023-05-13T18:21:35.882Z,99678.06
2023-05-13T18:24:04.341Z,99681.13
2023-05-13T18:26:32.759Z,99682.70
2023-05-13T18:29:01.280Z,99685.45
2023-05-13T18:31:29.670Z,99688.67
2023-05-13T18:33:58.156Z,99691.53
2023-05-13T18:36:26.534Z,99699.44
2023-05-13T18:38:55.480Z,99700.48
2023-05-13T18:41:24.031Z,99702.20
2023-05-13T18:43:52.318Z,99705.86
2023-05-13T18:46:20.902Z,99706.61
2023-05-13T18:48:49.404Z,99708.79
2023-05-13T18:51:17.756Z,99710.92
2023-05-13T18:53:46.572Z,99709.85
2023-05-13T18:56:14.981Z,99711.00
2023-05-13T18:58:45.933Z,99716.64
2023-05-13T19:01:15.881Z,99718.27
2023-05-13T19:03:44.602Z,99720.15
2023-05-13T19:06:12.954Z,99721.89
2023-05-13T19:08:42.458Z,99722.63
2023-05-13T19:11:11.455Z,99728.63
2023-05-13T19:16:14.478Z,99733.05
2023-05-13T19:18:43.021Z,99735.92
2023-05-13T19:21:11.374Z,99731.15
2023-05-13T19:23:39.722Z,99731.16
2023-05-13T19:26:08.745Z,99730.67
2023-05-13T19:28:38.502Z,99733.59
2023-05-13T19:31:06.797Z,99738.70
2023-05-13T19:33:37.207Z,99736.73
2023-05-13T19:36:06.492Z,99738.66
2023-05-13T19:38:37.936Z,99738.14
2023-05-13T19:41:06.300Z,99738.52
2023-05-13T19:43:34.778Z,99740.52
2023-05-13T19:46:03.120Z,99739.91
2023-05-13T19:48:31.464Z,99739.06
2023-05-13T19:50:59.898Z,99733.98
2023-05-13T19:53:28.254Z,99733.16
2023-05-13T19:55:56.712Z,99727.33
2023-05-13T19:58:25.166Z,99724.78
2023-05-13T20:00:55.294Z,99726.73
2023-05-13T20:03:23.761Z,99727.61
2023-05-13T20:05:54.044Z,99728.48
2023-05-13T20:08:23.007Z,99733.77
2023-05-13T20:10:51.338Z,99732.73
2023-05-13T20:13:19.669Z,99736.95
2023-05-13T20:15:47.935Z,99737.87
2023-05-13T20:18:16.535Z,99740.40
2023-05-13T20:20:47.052Z,99741.88
2023-05-13T20:23:15.329Z,99745.55
2023-05-13T20:25:46.676Z,99743.16
2023-05-13T20:28:15.073Z,99738.38
2023-05-13T20:30:43.457Z,99738.92
2023-05-13T20:33:13.003Z,99732.77
2023-05-13T20:35:41.278Z,99730.63
2023-05-13T20:38:09.681Z,99728.65
2023-05-13T20:40:37.958Z,99728.61
2023-05-13T20:43:07.747Z,99728.67
2023-05-13T20:45:39.881Z,99726.69
2023-05-13T20:48:09.382Z,99723.80
2023-05-13T20:50:37.725Z,99721.92
2023-05-13T20:53:05.992Z,99722.86
2023-05-13T20:55:34.292Z,99722.70
2023-05-13T20:58:02.649Z,99718.52
2023-05-13T21:00:31.083Z,99716.48
2023-05-13T21:02:59.946Z,99711.09
2023-05-13T21:05:28.543Z,99713.95
2023-05-13T21:07:56.771Z,99715.04
2023-05-13T21:10:25.357Z,99712.90
2023-05-13T21:12:53.919Z,99705.40
2023-05-13T21:15:22.187Z,99707.73
2023-05-13T21:17:50.409Z,99709.78
2023-05-13T21:20:18.989Z,99706.90
2023-05-13T21:22:47.367Z,99700.20
2023-05-13T21:25:15.779Z,99702.33
2023-05-13T21:27:44.122Z,99702.57
2023-05-13T21:30:13.575Z,99705.02
2023-05-13T21:32:41.984Z,99708.36
2023-05-13T21:35:10.595Z,99706.18
2023-05-13T21:37:39.042Z,99708.98
2023-05-13T21:40:08.398Z,99705.61
2023-05-13T21:42:36.677Z,99702.43
2023-05-13T21:45:05.293Z,99700.71
2023-05-13T21:47:33.530Z,99702.40
2023-05-13T21:50:01.780Z,99700.45
2023-05-13T21:52:30.176Z,99699.04
2023-05-13T21:54:58.571Z,99697.79
2023-05-13T21:57:26.883Z,99697.86
2023-05-13T21:59:55.232Z,99702.30
2023-05-13T22:02:23.617Z,99699.66
2023-05-13T22:04:51.974Z,99695.27
2023-05-13T22:07:20.277Z,99697.90
2023-05-13T22:09:50.359Z,99702.27
2023-05-13T22:12:18.951Z,99702.75
2023-05-13T22:14:47.297Z,99697.36
2023-05-13T22:17:15.789Z,99697.77
2023-05-13T22:19:44.324Z,99699.64
2023-05-13T22:22:12.577Z,99699.48
2023-05-13T22:24:40.983Z,99700.65
2023-05-13T22:27:09.593Z,99698.02
2023-05-13T22:29:37.823Z,99698.27
2023-05-13T22:32:06.536Z,99698.41
2023-05-13T22:34:34.842Z,99698.80
2023-05-13T22:37:03.134Z,99701.39
2023-05-13T22:39:31.517Z,99704.70
2023-05-13T22:41:59.844Z,99704.82
2023-05-13T22:44:28.140Z,99706.08
2023-05-13T22:46:56.413Z,99708.66
2023-05-13T22:49:24.719Z,99707.67
2023-05-13T22:51:53.033Z,99706.55
2023-05-13T22:54:21.332Z,99708.41
2023-05-13T22:56:49.590Z,99706.23
2023-05-13T22:59:18.040Z,99706.99
2023-05-13T23:01:46.315Z,99703.33
2023-05-13T23:04:14.674Z,99705.26
2023-05-13T23:06:43.000Z,99708.45
2023-05-13T23:09:11.787Z,99706.89
2023-05-13T23:11:40.142Z,99704.80
2023-05-13T23:14:09.017Z,99704.86
2023-05-13T23:16:37.451Z,99703.78
2023-05-13T23:19:06.222Z,99704.42
2023-05-13T23:21:34.574Z,99701.42
2023-05-13T23:24:03.937Z,99700.88
2023-05-13T23:26:32.377Z,99697.66
2023-05-13T23:29:00.660Z,99697.75
2023-05-13T23:31:28.982Z,99698.25
2023-05-13T23:33:57.396Z,99693.39
2023-05-13T23:36:25.675Z,99692.02
2023-05-13T23:38:54.022Z,99691.06
2023-05-13T23:41:22.669Z,99687.14
2023-05-13T23:43:51.087Z,99685.56
2023-05-13T23:46:19.444Z,99684.81
2023-05-13T23:48:47.896Z,99682.23
2023-05-13T23:51:16.135Z,99678.63
2023-05-13T23:53:44.832Z,99671.83
2023-05-13T23:56:13.182Z,99670.48
2023-05-13T23:58:41.473Z,99665.50
